• Join FlightAware (Why Join?)
  • Login
  • US Flag 
12:58PM EDT


 

Airport Tracker/Info


-or-


 

Live Flight TrackerFlight Track Log ✈ EJA941 ✈ 26-Apr-2013 ✈ KTEB - KBTV

Flight Track Log - Related Links

Times and Time Zones

All times are in EDT time to prevent confusion due to time zone crossing. See the EJA941 flight status page for this flight to view local times or setup timezone preferences in your user account.

Time Position Orientation Groundspeed Altitude Reporting Facility
EDT Latitude Longitude Course Direction KTS MPH feet Rate Location/Type
11:07AM 40.8833 -74.0333 294° West 187 215 1,900  Level New York TRACON
11:08AM 40.9000 -74.0833 294° West 200 230 2,000 1,260 Climbing New York TRACON
11:09AM 40.9167 -74.1500 288° West 225 259 4,600 1,920 Climbing New York TRACON
11:10AM 40.9833 -74.1667 349° North 268 308 5,900 840 Climbing New York TRACON
11:11AM 41.0667 -74.1500 North 275 316 6,300 540 Climbing New York TRACON
11:12AM 41.1333 -74.1333 11° North 287 330 7,000 1,860 Climbing New York TRACON
11:14AM 41.2047 -73.9328 65° Northeast 302 348 12,100 2,340 Climbing Boston Center
11:15AM 41.2336 -73.7842 75° East 358 412 14,500 2,340 Climbing Boston Center
11:16AM 41.2600 -73.6606 74° East 384 442 16,800 1,200 Climbing Boston Center
11:17AM 41.3325 -73.5128 57° Northeast 421 484 17,000 60 Climbing Boston Center
11:18AM 41.4369 -73.4756 15° North 398 458 17,000  Level Boston Center
11:19AM 41.5642 -73.4639 North 398 458 17,000  Level Boston Center
11:20AM 41.6706 -73.4544 North 411 473 17,000 -60 Level Boston Center
11:21AM 41.7978 -73.4425 North 416 479 16,900 -60 Descending Boston Center
11:22AM 41.9000 -73.4303 North 416 479 16,900  Level Boston Center
11:23AM 42.0294 -73.4183 North 422 486 16,900  Level Boston Center
11:24AM 42.1358 -73.4117 North 422 486 17,000  Climbing Boston Center
11:25AM 42.2608 -73.3967 North 422 486 17,000  Level Boston Center
11:26AM 42.3819 -73.3817 North 422 486 17,000  Level Boston Center
11:27AM 42.4967 -73.3692 North 422 486 17,000  Level Boston Center
11:28AM 42.6133 -73.3569 North 422 486 17,000  Level Boston Center
11:29AM 42.7322 -73.3447 North 422 486 17,000  Level Boston Center
11:30AM 42.8469 -73.3322 North 422 486 17,000  Level Boston Center
11:31AM 42.9658 -73.3197 North 422 486 17,000  Level Boston Center
11:32AM 43.0722 -73.3069 North 422 486 17,000  Level Boston Center
11:33AM 43.1994 -73.2944 North 422 486 17,000  Level Boston Center
11:34AM 43.3289 -73.2764 North 422 486 17,000 -360 Level Boston Center
11:35AM 43.4456 -73.2694 North 422 486 16,300 -1,140 Descending Boston Center
11:36AM 43.5583 -73.2567 North 415 478 14,800 -1,500 Descending Boston Center
11:37AM 43.6708 -73.2439 North 410 472 13,300 -1,500 Descending Boston Center
11:38AM 43.7814 -73.2308 North 399 459 11,800 -1,200 Descending Boston Center
11:39AM 43.8817 -73.2206 North 373 429 11,000 -420 Descending Boston Center
11:40AM 43.9836 -73.2106 North 368 423 11,000 -660 Level Boston Center
11:41AM 44.0756 -73.1972 North 351 404 9,700 -1,800 Descending Boston Center
11:42AM 44.1567 -73.1894 North 304 350 7,400 -2,580 Descending Boston Center
11:43AM 44.2403 -73.1789 North 274 315 4,600 -1,980 Descending Boston Center
11:44AM 44.3031 -73.1392 24° Northeast 256 295 3,500 -1,200 Descending Boston Center
11:45AM 44.3636 -73.1194 13° North 231 266 2,300 -840 Descending Boston Center
11:46AM 44.4136 -73.1086 North 198 228 1,900 -660 Descending Boston Center
11:47AM 44.4511 -73.1206 347° North 151 174 1,000 4,500 Descending Boston Center
11:48AM 44.4822 -73.1442 332° Northwest 125 144 11,000 4,980 Climbing Boston Center
11:49AM 44.5133 -73.1650 334° Northwest 125 144 11,000  Level Boston Center
11:50AM 44.5444 -73.1886 332° Northwest 125 144 11,000  Level Boston Center
11:51AM 44.5756 -73.2094 335° Northwest 125 144 11,000  Level Boston Center
11:52AM 44.6003 -73.2272 333° Northwest 125 144 11,000  Level Boston Center
11:54AM 44.5127 -73.1766 158° South  Level FlightAware Approximate